Grand Legacy — WDJ2699 — position and weather

sailwx.info

Track history (hours):
 
Tides and Currents Weather Stations Pressure Air Temp Water Temp Dewpoint Dewpoint Depression Visibility Wind Speed Wind Dir Waves Ship Positions

Grand Legacy

Owner: Lastinger, Gary M, Irvine, CA. More information available from US FCC via Universal Licensing System and Coast Guard Vessel Documentation Center.

Last reported at 2017-Dec-01 18:44 UTC. Time now 2017-Dec-12 08:20 UTC.
Position N 26°06' W 080°10'.
Warning: this ship's position is 10 days out of date.

Length 34 m; draft 2 m.

Type: Pleasure craft. MMSI: 367760860.

Date/timePositionNaut miles runAvg speedWind from/ knotsBaromVisibWave heightAir tempDewpointWater temp
2017-Dec-01 18:44N 26°06' W 080°10'0 1.9
2017-Dec-01 18:31N 26°06' W 080°10'2 3.2
2017-Dec-01 18:01N 26°07' W 080°09'2 3.2
2017-Dec-01 17:30N 26°07' W 080°07'510.1
2017-Dec-01 17:00N 26°02' W 080°05'1 2.7
2017-Dec-01 16:30N 26°01' W 080°04'5 9.8
2017-Dec-01 16:00N 26°06' W 080°06'2 4.4
2017-Dec-01 15:30N 26°07' W 080°08'1 2.3
2017-Dec-01 15:01N 26°07' W 080°09'2 4.0
2017-Dec-01 14:30N 26°06' W 080°10'0 0.0
2017-Dec-01 14:00N 26°06' W 080°10'0 0.0
2017-Dec-01 13:30N 26°06' W 080°10'0 0.0
2017-Dec-01 13:00N 26°06' W 080°10'0 0.0
2017-Dec-01 12:30N 26°06' W 080°10'0 0.0
2017-Dec-01 12:00N 26°06' W 080°10'0 0.0
2017-Dec-01 11:30N 26°06' W 080°10'0 0.0
2017-Dec-01 11:00N 26°06' W 080°10'0 0.0
2017-Dec-01 10:30N 26°06' W 080°10'0 0.0
2017-Dec-01 10:00N 26°06' W 080°10'0 0.0
2017-Dec-01 09:30N 26°06' W 080°10'0 0.0
2017-Dec-01 09:00N 26°06' W 080°10'0 0.0
2017-Dec-01 08:30N 26°06' W 080°10'0 0.0
2017-Dec-01 08:00N 26°06' W 080°10'0 0.0
2017-Dec-01 07:30N 26°06' W 080°10'0 0.0
2017-Dec-01 07:00N 26°06' W 080°10'0 0.0
2017-Dec-01 06:30N 26°06' W 080°10'0 0.0
2017-Dec-01 06:00N 26°06' W 080°10'0 0.0
2017-Dec-01 05:30N 26°06' W 080°10'0 0.0
2017-Dec-01 05:00N 26°06' W 080°10'0 0.0
2017-Dec-01 04:30N 26°06' W 080°10'0 0.0
2017-Dec-01 04:00N 26°06' W 080°10'0 0.0
2017-Dec-01 03:30N 26°06' W 080°10'0 0.0
2017-Dec-01 03:00N 26°06' W 080°10'0 0.0
2017-Dec-01 02:30N 26°06' W 080°10'0 0.0
2017-Dec-01 02:00N 26°06' W 080°10'0 0.0
2017-Dec-01 01:30N 26°06' W 080°10'0 0.0
2017-Dec-01 01:00N 26°06' W 080°10'0 0.0
2017-Dec-01 00:30N 26°06' W 080°10'0 0.0
2017-Dec-01 00:00N 26°06' W 080°10'0 0.0
2017-Nov-30 23:30N 26°06' W 080°10'0 0.0
2017-Nov-30 23:00N 26°06' W 080°10'0 0.0
2017-Nov-30 22:30N 26°06' W 080°10'0 0.0
2017-Nov-30 22:00N 26°06' W 080°10'0 0.0
2017-Nov-30 21:30N 26°06' W 080°10'0 0.0
2017-Nov-30 21:00N 26°06' W 080°10'0 0.0
2017-Nov-30 20:30N 26°06' W 080°10'0 0.0
2017-Nov-30 20:00N 26°06' W 080°10'0 0.0
2017-Nov-30 19:30N 26°06' W 080°10'0 0.0
2017-Nov-30 19:00N 26°06' W 080°10'0 0.0
2017-Nov-30 18:30N 26°06' W 080°10'0 0.0
2017-Nov-30 18:00N 26°06' W 080°10'0 0.0
2017-Nov-30 17:30N 26°06' W 080°10'0 0.0
2017-Nov-30 17:00N 26°06' W 080°10'0 0.0
2017-Nov-30 16:30N 26°06' W 080°10'0 0.0
2017-Nov-30 16:00N 26°06' W 080°10'0 0.0
2017-Nov-30 15:30N 26°06' W 080°10'0 0.0
2017-Nov-30 15:00N 26°06' W 080°10'0 0.0
2017-Nov-30 14:30N 26°06' W 080°10'0 0.0
2017-Nov-30 14:00N 26°06' W 080°10'0 0.0
2017-Nov-30 13:30N 26°06' W 080°10'0 0.0
2017-Nov-30 13:00N 26°06' W 080°10'0 0.0
2017-Nov-30 12:30N 26°06' W 080°10'0 0.0
2017-Nov-30 12:00N 26°06' W 080°10'0 0.0
2017-Nov-30 11:30N 26°06' W 080°10'0 0.0
2017-Nov-30 11:00N 26°06' W 080°10'0 0.0
2017-Nov-30 10:30N 26°06' W 080°10'0 0.0
2017-Nov-30 10:00N 26°06' W 080°10'0 0.0
2017-Nov-30 09:30N 26°06' W 080°10'0 0.0
2017-Nov-30 09:00N 26°06' W 080°10'0 0.0
2017-Nov-30 08:30N 26°06' W 080°10'0 0.0
2017-Nov-30 08:00N 26°06' W 080°10'0 0.0
2017-Nov-30 07:30N 26°06' W 080°10'0 0.0
2017-Nov-30 07:00N 26°06' W 080°10'0 0.0
2017-Nov-30 06:30N 26°06' W 080°10'0 0.0
2017-Nov-30 06:00N 26°06' W 080°10'0 0.0
2017-Nov-30 05:30N 26°06' W 080°10'0 0.0
2017-Nov-30 05:00N 26°06' W 080°10'0 0.0
2017-Nov-30 04:30N 26°06' W 080°10'0 0.0
2017-Nov-30 04:00N 26°06' W 080°10'0 0.0
2017-Nov-30 03:30N 26°06' W 080°10'0 0.0
2017-Nov-30 03:00N 26°06' W 080°10'0 0.0
2017-Nov-30 02:30N 26°06' W 080°10'0 0.0
2017-Nov-30 02:00N 26°06' W 080°10'0 0.0
2017-Nov-30 01:30N 26°06' W 080°10'0 0.0
2017-Nov-30 01:00N 26°06' W 080°10'0 0.0
2017-Nov-30 00:30N 26°06' W 080°10'0 0.0
2017-Nov-30 00:00N 26°06' W 080°10'0 0.0
2017-Nov-29 23:30N 26°06' W 080°10'0 0.0
2017-Nov-29 23:00N 26°06' W 080°10'0 0.0
2017-Nov-29 22:30N 26°06' W 080°10'0 0.0
2017-Nov-29 22:00N 26°06' W 080°10'0 0.0
2017-Nov-29 21:30N 26°06' W 080°10'0 0.0
2017-Nov-29 21:00N 26°06' W 080°10'0 0.0
2017-Nov-29 20:30N 26°06' W 080°10'0 0.0
2017-Nov-29 20:00N 26°06' W 080°10'0 0.0
2017-Nov-29 19:30N 26°06' W 080°10'0 0.0
2017-Nov-29 19:00N 26°06' W 080°10'0 0.0
2017-Nov-29 18:30N 26°06' W 080°10'0 0.0
2017-Nov-29 18:00N 26°06' W 080°10'0 0.0
2017-Nov-29 17:30N 26°06' W 080°10'0 0.0
2017-Nov-29 17:00N 26°06' W 080°10'0 0.0
2017-Nov-29 16:30N 26°06' W 080°10'0 0.0
2017-Nov-29 16:00N 26°06' W 080°10'0 0.0
2017-Nov-29 15:30N 26°06' W 080°10'0 0.0
2017-Nov-29 15:00N 26°06' W 080°10'0 0.0
2017-Nov-29 14:30N 26°06' W 080°10'0 0.0
2017-Nov-29 14:00N 26°06' W 080°10'0 0.0
2017-Nov-29 13:30N 26°06' W 080°10'0 0.0
2017-Nov-29 13:00N 26°06' W 080°10'0 0.0
2017-Nov-29 12:30N 26°06' W 080°10'0 0.0
2017-Nov-29 12:00N 26°06' W 080°10'0 0.0
2017-Nov-29 11:30N 26°06' W 080°10'0 0.0
2017-Nov-29 11:00N 26°06' W 080°10'0 0.0
2017-Nov-29 10:30N 26°06' W 080°10'0 0.0
2017-Nov-29 10:00N 26°06' W 080°10'0 0.0
2017-Nov-29 09:30N 26°06' W 080°10'0 0.0
2017-Nov-29 09:00N 26°06' W 080°10'0 0.0
2017-Nov-29 08:30N 26°06' W 080°10'0 0.0
2017-Nov-29 08:00N 26°06' W 080°10'0 0.0
2017-Nov-29 07:30N 26°06' W 080°10'0 0.0
2017-Nov-29 07:00N 26°06' W 080°10'0 0.0
2017-Nov-29 06:30N 26°06' W 080°10'0 0.0
2017-Nov-29 06:00N 26°06' W 080°10'0 0.0
2017-Nov-29 05:30N 26°06' W 080°10'0 0.0
2017-Nov-29 05:00N 26°06' W 080°10'0 0.0
2017-Nov-29 04:30N 26°06' W 080°10'0 0.0
2017-Nov-29 04:00N 26°06' W 080°10'0 0.0
2017-Nov-29 03:30N 26°06' W 080°10'0 0.0
2017-Nov-29 03:00N 26°06' W 080°10'0 0.0
2017-Nov-29 02:30N 26°06' W 080°10'0 0.0
2017-Nov-29 02:00N 26°06' W 080°10'0 0.0
2017-Nov-29 01:30N 26°06' W 080°10'0 0.0
2017-Nov-29 01:00N 26°06' W 080°10'0 0.0
2017-Nov-29 00:30N 26°06' W 080°10'0 0.0
2017-Nov-29 00:00N 26°06' W 080°10'0 0.0
2017-Nov-28 23:30N 26°06' W 080°10'0 0.0
2017-Nov-28 23:00N 26°06' W 080°10'0 0.0
2017-Nov-28 22:30N 26°06' W 080°10'0 0.0
2017-Nov-28 22:00N 26°06' W 080°10'0 0.0
2017-Nov-28 21:30N 26°06' W 080°10'0 0.0
2017-Nov-28 21:00N 26°06' W 080°10'0 0.0
2017-Nov-28 20:30N 26°06' W 080°10'0 0.0
2017-Nov-28 20:00N 26°06' W 080°10'0 0.0
2017-Nov-28 19:30N 26°06' W 080°10'0 0.0
2017-Nov-28 19:00N 26°06' W 080°10'0 0.0
2017-Nov-28 18:30N 26°06' W 080°10'0 0.0
2017-Nov-28 18:00N 26°06' W 080°10'0 0.0
2017-Nov-28 17:30N 26°06' W 080°10'0 0.0
2017-Nov-28 17:00N 26°06' W 080°10'0 0.0
2017-Nov-28 16:30N 26°06' W 080°10'0 0.0
2017-Nov-28 16:00N 26°06' W 080°10'0 0.0
2017-Nov-28 15:00N 26°06' W 080°10'0 0.0
2017-Nov-28 14:30N 26°06' W 080°10'0 0.0
2017-Nov-28 14:00N 26°06' W 080°10'0 0.0
2017-Nov-28 13:30N 26°06' W 080°10'0 0.0
2017-Nov-28 13:00N 26°06' W 080°10'0 0.0
2017-Nov-28 12:30N 26°06' W 080°10'0 0.0
2017-Nov-28 12:00N 26°06' W 080°10'0 0.0
2017-Nov-28 11:30N 26°06' W 080°10'0 0.0
2017-Nov-28 11:00N 26°06' W 080°10'0 0.0
2017-Nov-28 10:30N 26°06' W 080°10'0 0.0
2017-Nov-28 10:00N 26°06' W 080°10'0 0.0
2017-Nov-28 09:30N 26°06' W 080°10'0 0.0
2017-Nov-28 09:00N 26°06' W 080°10'0 0.0
2017-Nov-28 08:30N 26°06' W 080°10'0 0.0
2017-Nov-28 08:00N 26°06' W 080°10'0 0.0
2017-Nov-28 07:30N 26°06' W 080°10'0 0.0
2017-Nov-28 07:00N 26°06' W 080°10'0 0.0
2017-Nov-28 06:30N 26°06' W 080°10'0 0.0
2017-Nov-28 06:00N 26°06' W 080°10'0 0.0
2017-Nov-28 05:30N 26°06' W 080°10'0 0.0
2017-Nov-28 04:30N 26°06' W 080°10'0 0.0
2017-Nov-28 04:00N 26°06' W 080°10'0 0.0
2017-Nov-28 03:30N 26°06' W 080°10'0 0.0
2017-Nov-28 03:00N 26°06' W 080°10'0 0.0
2017-Nov-28 02:30N 26°06' W 080°10'0 0.0
2017-Nov-28 02:00N 26°06' W 080°10'0 0.0
2017-Nov-28 01:30N 26°06' W 080°10'0 0.0
2017-Nov-28 01:00N 26°06' W 080°10'0 0.0
2017-Nov-28 00:30N 26°06' W 080°10'0 0.0
2017-Nov-28 00:00N 26°06' W 080°10'0 0.0
2017-Nov-27 23:30N 26°06' W 080°10'0 0.0
2017-Nov-27 23:00N 26°06' W 080°10'0 0.0
2017-Nov-27 22:30N 26°06' W 080°10'0 0.0
2017-Nov-27 22:00N 26°06' W 080°10'0 0.0
2017-Nov-27 21:30N 26°06' W 080°10'0 0.0
2017-Nov-27 21:00N 26°06' W 080°10'0 0.0
2017-Nov-27 20:30N 26°06' W 080°10'0 0.0
2017-Nov-27 20:00N 26°06' W 080°10'0 0.0
2017-Nov-27 19:30N 26°06' W 080°10'0 0.0
2017-Nov-27 19:00N 26°06' W 080°10'0 0.0
2017-Nov-27 18:30N 26°06' W 080°10'0 0.0
2017-Nov-27 18:00N 26°06' W 080°10'0 0.0
2017-Nov-27 17:30N 26°06' W 080°10'0 0.0
2017-Nov-27 17:00N 26°06' W 080°10'0 0.0
2017-Nov-27 16:30N 26°06' W 080°10'0 0.0
2017-Nov-27 16:00N 26°06' W 080°10'0 0.0
2017-Nov-27 15:30N 26°06' W 080°10'0 0.0
2017-Nov-27 15:00N 26°06' W 080°10'0 0.0
2017-Nov-27 14:30N 26°06' W 080°10'0 0.0
2017-Nov-27 14:00N 26°06' W 080°10'0 0.0
2017-Nov-27 13:30N 26°06' W 080°10'0 0.0
2017-Nov-27 13:00N 26°06' W 080°10'0 0.0
2017-Nov-27 12:30N 26°06' W 080°10'0 0.0
2017-Nov-27 12:00N 26°06' W 080°10'0 0.0
2017-Nov-27 11:30N 26°06' W 080°10'0 0.0
2017-Nov-27 11:00N 26°06' W 080°10'0 0.0
2017-Nov-27 10:30N 26°06' W 080°10'0 0.0
2017-Nov-27 10:00N 26°06' W 080°10'0 0.0
2017-Nov-27 09:30N 26°06' W 080°10'0 0.0
2017-Nov-27 09:00N 26°06' W 080°10'0 0.0
2017-Nov-27 08:30N 26°06' W 080°10'0 0.0
2017-Nov-27 08:00N 26°06' W 080°10'0 0.0
2017-Nov-27 07:30N 26°06' W 080°10'0 0.0
2017-Nov-27 07:00N 26°06' W 080°10'0 0.0
2017-Nov-27 06:30N 26°06' W 080°10'0 0.0
2017-Nov-27 06:00N 26°06' W 080°10'0 0.0
2017-Nov-27 05:30N 26°06' W 080°10'0 0.0
2017-Nov-27 05:00N 26°06' W 080°10'0 0.0
2017-Nov-27 04:30N 26°06' W 080°10'0 0.0
2017-Nov-27 04:00N 26°06' W 080°10'0 0.0
2017-Nov-27 03:30N 26°06' W 080°10'0 0.0
2017-Nov-27 03:00N 26°06' W 080°10'0 0.0
2017-Nov-27 02:30N 26°06' W 080°10'0 0.0
2017-Nov-27 02:00N 26°06' W 080°10'0 0.0
2017-Nov-27 01:30N 26°06' W 080°10'0 0.0
2017-Nov-27 01:00N 26°06' W 080°10'0 0.0
2017-Nov-27 00:30N 26°06' W 080°10'0 0.0
2017-Nov-27 00:00N 26°06' W 080°10'0 0.0
2017-Nov-26 23:30N 26°06' W 080°10'0 0.0
2017-Nov-26 23:00N 26°06' W 080°10'0 0.0
2017-Nov-26 22:30N 26°06' W 080°10'0 0.0
2017-Nov-26 22:00N 26°06' W 080°10'0 0.0
2017-Nov-26 21:30N 26°06' W 080°10'0 0.0
2017-Nov-26 21:00N 26°06' W 080°10'0 0.0
2017-Nov-26 20:30N 26°06' W 080°10'0 0.0
2017-Nov-26 20:00N 26°06' W 080°10'0 0.0
2017-Nov-26 19:30N 26°06' W 080°10'0 0.0
2017-Nov-26 19:00N 26°06' W 080°10'0 0.0
2017-Nov-26 18:30N 26°06' W 080°10'0 0.0
2017-Nov-26 18:00N 26°06' W 080°10'0 0.0
2017-Nov-26 17:30N 26°06' W 080°10'0 0.0
2017-Nov-26 17:00N 26°06' W 080°10'0 0.0
2017-Nov-26 16:30N 26°06' W 080°10'0 0.0
2017-Nov-26 16:00N 26°06' W 080°10'0 0.0
2017-Nov-26 15:30N 26°06' W 080°10'0 0.0
2017-Nov-26 15:00N 26°06' W 080°10'0 0.0
2017-Nov-26 14:30N 26°06' W 080°10'0 0.0
2017-Nov-26 14:00N 26°06' W 080°10'0 0.0
2017-Nov-26 13:30N 26°06' W 080°10'0 0.0
2017-Nov-26 13:00N 26°06' W 080°10'0 0.0
2017-Nov-26 12:30N 26°06' W 080°10'0 0.0
2017-Nov-26 12:00N 26°06' W 080°10'0 0.0
2017-Nov-26 11:30N 26°06' W 080°10'0 0.0
2017-Nov-26 11:00N 26°06' W 080°10'0 0.0
2017-Nov-26 10:30N 26°06' W 080°10'0 0.0
2017-Nov-26 10:00N 26°06' W 080°10'0 0.0
2017-Nov-26 09:30N 26°06' W 080°10'0 0.0
2017-Nov-26 09:00N 26°06' W 080°10'0 0.0
2017-Nov-26 08:30N 26°06' W 080°10'0 0.0
2017-Nov-26 08:00N 26°06' W 080°10'0 0.0
2017-Nov-26 07:30N 26°06' W 080°10'0 0.0
2017-Nov-26 07:00N 26°06' W 080°10'0 0.0
2017-Nov-26 06:30N 26°06' W 080°10'0 0.0
2017-Nov-26 06:00N 26°06' W 080°10'0 0.0
2017-Nov-26 05:30N 26°06' W 080°10'0 0.0
2017-Nov-26 05:00N 26°06' W 080°10'0 0.0
2017-Nov-26 04:30N 26°06' W 080°10'0 0.0
2017-Nov-26 04:00N 26°06' W 080°10'0 0.0
2017-Nov-26 03:30N 26°06' W 080°10'0 0.0
2017-Nov-26 03:00N 26°06' W 080°10'0 0.0
2017-Nov-26 02:30N 26°06' W 080°10'0 0.0
2017-Nov-26 02:00N 26°06' W 080°10'0 0.0
2017-Nov-26 01:30N 26°06' W 080°10'0 0.0
2017-Nov-26 01:00N 26°06' W 080°10'0 0.0
2017-Nov-26 00:30N 26°06' W 080°10'0 0.0
2017-Nov-26 00:00N 26°06' W 080°10'0 0.0
2017-Nov-25 23:30N 26°06' W 080°10'0 0.0
2017-Nov-25 23:00N 26°06' W 080°10'0 0.0
2017-Nov-25 22:30N 26°06' W 080°10'0 0.0
2017-Nov-25 22:00N 26°06' W 080°10'0 0.0
2017-Nov-25 21:30N 26°06' W 080°10'0 0.0
2017-Nov-25 21:00N 26°06' W 080°10'0 0.0
2017-Nov-25 20:30N 26°06' W 080°10'0 0.0
2017-Nov-25 20:00N 26°06' W 080°10'0 0.0
2017-Nov-25 19:30N 26°06' W 080°10'0 0.0
2017-Nov-25 19:00N 26°06' W 080°10'0 0.0
2017-Nov-25 18:30N 26°06' W 080°10'0 0.0
2017-Nov-25 18:00N 26°06' W 080°10'0 0.0
2017-Nov-25 17:30N 26°06' W 080°10'0 0.0
2017-Nov-25 17:00N 26°06' W 080°10'0 0.0
2017-Nov-25 16:30N 26°06' W 080°10'0 0.0
2017-Nov-25 16:00N 26°06' W 080°10'0 0.0
2017-Nov-25 15:30N 26°06' W 080°10'0 0.0
2017-Nov-25 15:00N 26°06' W 080°10'0 0.0
2017-Nov-25 14:30N 26°06' W 080°10'0 0.0
2017-Nov-25 14:00N 26°06' W 080°10'0 0.0
2017-Nov-25 13:30N 26°06' W 080°10'0 0.0
2017-Nov-25 13:00N 26°06' W 080°10'0 0.0
2017-Nov-25 12:30N 26°06' W 080°10'0 0.0
2017-Nov-25 12:00N 26°06' W 080°10'0 0.0
2017-Nov-25 11:30N 26°06' W 080°10'0 0.0
2017-Nov-25 11:00N 26°06' W 080°10'0 0.0
2017-Nov-25 10:30N 26°06' W 080°10'0 0.0
2017-Nov-25 10:00N 26°06' W 080°10'0 0.0
2017-Nov-25 09:30N 26°06' W 080°10'0 0.0
2017-Nov-25 09:00N 26°06' W 080°10'0 0.0
2017-Nov-25 08:30N 26°06' W 080°10'0 0.0
2017-Nov-25 08:00N 26°06' W 080°10'0 0.0
2017-Nov-25 07:30N 26°06' W 080°10'0 0.0
2017-Nov-25 07:00N 26°06' W 080°10'0 0.0
2017-Nov-25 06:30N 26°06' W 080°10'0 0.0
2017-Nov-25 06:00N 26°06' W 080°10'0 0.0
2017-Nov-25 05:30N 26°06' W 080°10'0 0.0
2017-Nov-25 05:00N 26°06' W 080°10'0 0.0
2017-Nov-25 04:30N 26°06' W 080°10'0 0.0
2017-Nov-25 04:00N 26°06' W 080°10'0 0.0
2017-Nov-25 03:30N 26°06' W 080°10'0 0.0
2017-Nov-25 03:00N 26°06' W 080°10'0 0.0
2017-Nov-25 02:30N 26°06' W 080°10'0 0.0
2017-Nov-25 02:00N 26°06' W 080°10'0 0.0
2017-Nov-25 01:30N 26°06' W 080°10'0 0.0
2017-Nov-25 01:00N 26°06' W 080°10'0 0.0
2017-Nov-25 00:30N 26°06' W 080°10'0 0.0
2017-Nov-25 00:00N 26°06' W 080°10'0 0.0
2017-Nov-24 23:30N 26°06' W 080°10'0 0.0
2017-Nov-24 23:00N 26°06' W 080°10'0 0.0
2017-Nov-24 22:30N 26°06' W 080°10'0 0.0
2017-Nov-24 22:00N 26°06' W 080°10'0 0.0
2017-Nov-24 21:30N 26°06' W 080°10'0 0.0
2017-Nov-24 21:00N 26°06' W 080°10'0 0.0
2017-Nov-24 20:30N 26°06' W 080°10'0 0.0
2017-Nov-24 20:00N 26°06' W 080°10'0 0.0
2017-Nov-24 19:30N 26°06' W 080°10'0 0.0
2017-Nov-24 19:00N 26°06' W 080°10'0 0.0
2017-Nov-24 18:30N 26°06' W 080°10'0 0.0
2017-Nov-24 18:00N 26°06' W 080°10'0 0.0
2017-Nov-24 17:30N 26°06' W 080°10'0 0.0
2017-Nov-24 17:00N 26°06' W 080°10'0 0.0
2017-Nov-24 16:30N 26°06' W 080°10'0 0.0
2017-Nov-24 16:00N 26°06' W 080°10'0 0.0
2017-Nov-24 15:30N 26°06' W 080°10'0 0.0
2017-Nov-24 15:00N 26°06' W 080°10'0 0.0
2017-Nov-24 14:30N 26°06' W 080°10'0 0.0
2017-Nov-24 14:00N 26°06' W 080°10'0 0.0
2017-Nov-24 13:30N 26°06' W 080°10'0 0.0
2017-Nov-24 13:00N 26°06' W 080°10'0 0.0
2017-Nov-24 12:30N 26°06' W 080°10'0 0.0
2017-Nov-24 12:00N 26°06' W 080°10'0 0.0
2017-Nov-24 11:30N 26°06' W 080°10'0 0.0
2017-Nov-24 11:00N 26°06' W 080°10'0 0.0
2017-Nov-24 10:30N 26°06' W 080°10'0 0.0
2017-Nov-24 10:00N 26°06' W 080°10'0 0.0
2017-Nov-24 09:30N 26°06' W 080°10'0 0.0
2017-Nov-24 09:00N 26°06' W 080°10'0 0.0
2017-Nov-24 08:30N 26°06' W 080°10'0 0.0
2017-Nov-24 08:00N 26°06' W 080°10'0 0.0
2017-Nov-24 07:30N 26°06' W 080°10'0 0.0
2017-Nov-24 07:00N 26°06' W 080°10'0 0.0
2017-Nov-24 06:30N 26°06' W 080°10'0 0.0
2017-Nov-24 06:00N 26°06' W 080°10'0 0.0
2017-Nov-24 05:30N 26°06' W 080°10'0 0.0
2017-Nov-24 05:00N 26°06' W 080°10'0 0.0
2017-Nov-24 04:30N 26°06' W 080°10'0 0.0
2017-Nov-24 04:00N 26°06' W 080°10'0 0.0
2017-Nov-24 03:30N 26°06' W 080°10'0 0.0
2017-Nov-24 03:00N 26°06' W 080°10'0 0.0
2017-Nov-24 02:30N 26°06' W 080°10'0 0.0
2017-Nov-24 02:00N 26°06' W 080°10'0 0.0
2017-Nov-24 01:30N 26°06' W 080°10'0 0.0
2017-Nov-24 01:00N 26°06' W 080°10'0 0.0
2017-Nov-24 00:30N 26°06' W 080°10'0 0.0
2017-Nov-24 00:00N 26°06' W 080°10'0 0.0
2017-Nov-23 23:30N 26°06' W 080°10'0 0.0
2017-Nov-23 23:00N 26°06' W 080°10'0 0.0
2017-Nov-23 22:30N 26°06' W 080°10'0 0.0
2017-Nov-23 22:00N 26°06' W 080°10'0 0.0
2017-Nov-23 21:30N 26°06' W 080°10'0 0.0
2017-Nov-23 21:00N 26°06' W 080°10'0 0.0
2017-Nov-23 20:30N 26°06' W 080°10'0 0.0
2017-Nov-23 20:00N 26°06' W 080°10'0 0.0
2017-Nov-23 19:30N 26°06' W 080°10'0 0.0
2017-Nov-23 19:00N 26°06' W 080°10'0 0.0
2017-Nov-23 18:30N 26°06' W 080°10'0 0.0
2017-Nov-23 18:00N 26°06' W 080°10'0 0.0
2017-Nov-23 17:30N 26°06' W 080°10'0 0.0
2017-Nov-23 17:00N 26°06' W 080°10'0 0.0
2017-Nov-23 16:30N 26°06' W 080°10'0 0.0
2017-Nov-23 16:00N 26°06' W 080°10'0 0.0
2017-Nov-23 15:30N 26°06' W 080°10'0 0.0
2017-Nov-23 15:00N 26°06' W 080°10'0 0.0
2017-Nov-23 14:30N 26°06' W 080°10'0 0.0
2017-Nov-23 14:00N 26°06' W 080°10'0 0.0
2017-Nov-23 13:30N 26°06' W 080°10'0 0.0
2017-Nov-23 13:00N 26°06' W 080°10'0 0.0
2017-Nov-23 12:30N 26°06' W 080°10'0 0.0
2017-Nov-23 12:00N 26°06' W 080°10'0 0.0
2017-Nov-23 11:30N 26°06' W 080°10'0 0.0
2017-Nov-23 11:00N 26°06' W 080°10'0 0.0
2017-Nov-23 10:30N 26°06' W 080°10'0 0.0
2017-Nov-23 10:00N 26°06' W 080°10'0 0.0
2017-Nov-23 09:30N 26°06' W 080°10'0 0.0
2017-Nov-23 09:00N 26°06' W 080°10'0 0.0
2017-Nov-23 08:30N 26°06' W 080°10'0 0.0
2017-Nov-23 08:00N 26°06' W 080°10'0 0.0
2017-Nov-23 07:30N 26°06' W 080°10'0 0.0
2017-Nov-23 07:00N 26°06' W 080°10'0 0.0
2017-Nov-23 06:30N 26°06' W 080°10'0 0.0
2017-Nov-23 06:00N 26°06' W 080°10'0 0.0
2017-Nov-23 05:30N 26°06' W 080°10'0 0.0
2017-Nov-23 05:00N 26°06' W 080°10'0 0.0
2017-Nov-23 04:30N 26°06' W 080°10'0 0.0
2017-Nov-23 04:00N 26°06' W 080°10'0 0.0
2017-Nov-23 03:30N 26°06' W 080°10'0 0.0
2017-Nov-23 03:00N 26°06' W 080°10'0 0.0
2017-Nov-23 02:30N 26°06' W 080°10'0 0.0
2017-Nov-23 02:00N 26°06' W 080°10'0 0.0
2017-Nov-23 01:30N 26°06' W 080°10'0 0.0
2017-Nov-23 01:00N 26°06' W 080°10'0 0.0
2017-Nov-23 00:30N 26°06' W 080°10'0 0.0
2017-Nov-23 00:00N 26°06' W 080°10'0 0.0
2017-Nov-22 23:30N 26°06' W 080°10'0 0.0
2017-Nov-22 23:00N 26°06' W 080°10'0 0.0
2017-Nov-22 22:30N 26°06' W 080°10'0 0.0
2017-Nov-22 22:00N 26°06' W 080°10'0 0.0
2017-Nov-22 21:30N 26°06' W 080°10'0 0.0
2017-Nov-22 21:00N 26°06' W 080°10'0 0.0
2017-Nov-22 20:30N 26°06' W 080°10'0 0.0
2017-Nov-22 20:00N 26°06' W 080°10'0 0.0
2017-Nov-22 19:30N 26°06' W 080°10'  
Track history (hours):
 
Tides and Currents Weather Stations Pressure Air Temp Water Temp Dewpoint Dewpoint Depression Visibility Wind Speed Wind Dir Waves Ship Positions

Grand Legacy

Owner: Lastinger, Gary M, Irvine, CA. More information available from US FCC via Universal Licensing System and Coast Guard Vessel Documentation Center.

Last reported at 2017-Dec-01 18:44 UTC. Time now 2017-Dec-12 08:20 UTC.
Position N 26°06' W 080°10'.
Warning: this ship's position is 10 days out of date.

Length 34 m; draft 2 m.

Type: Pleasure craft. MMSI: 367760860.

Date/timePositionNaut miles runAvg speedWind from/ knotsBaromVisibWave heightAir tempDewpointWater temp
2017-Dec-01 18:44N 26°06' W 080°10'0 1.9
2017-Dec-01 18:31N 26°06' W 080°10'2 3.2
2017-Dec-01 18:01N 26°07' W 080°09'2 3.2
2017-Dec-01 17:30N 26°07' W 080°07'510.1
2017-Dec-01 17:00N 26°02' W 080°05'1 2.7
2017-Dec-01 16:30N 26°01' W 080°04'5 9.8
2017-Dec-01 16:00N 26°06' W 080°06'2 4.4
2017-Dec-01 15:30N 26°07' W 080°08'1 2.3
2017-Dec-01 15:01N 26°07' W 080°09'2 4.0
2017-Dec-01 14:30N 26°06' W 080°10'0 0.0
2017-Dec-01 14:00N 26°06' W 080°10'0 0.0
2017-Dec-01 13:30N 26°06' W 080°10'0 0.0
2017-Dec-01 13:00N 26°06' W 080°10'0 0.0
2017-Dec-01 12:30N 26°06' W 080°10'0 0.0
2017-Dec-01 12:00N 26°06' W 080°10'0 0.0
2017-Dec-01 11:30N 26°06' W 080°10'0 0.0
2017-Dec-01 11:00N 26°06' W 080°10'0 0.0
2017-Dec-01 10:30N 26°06' W 080°10'0 0.0
2017-Dec-01 10:00N 26°06' W 080°10'0 0.0
2017-Dec-01 09:30N 26°06' W 080°10'0 0.0
2017-Dec-01 09:00N 26°06' W 080°10'0 0.0
2017-Dec-01 08:30N 26°06' W 080°10'0 0.0
2017-Dec-01 08:00N 26°06' W 080°10'0 0.0
2017-Dec-01 07:30N 26°06' W 080°10'0 0.0
2017-Dec-01 07:00N 26°06' W 080°10'0 0.0
2017-Dec-01 06:30N 26°06' W 080°10'0 0.0
2017-Dec-01 06:00N 26°06' W 080°10'0 0.0
2017-Dec-01 05:30N 26°06' W 080°10'0 0.0
2017-Dec-01 05:00N 26°06' W 080°10'0 0.0
2017-Dec-01 04:30N 26°06' W 080°10'0 0.0
2017-Dec-01 04:00N 26°06' W 080°10'0 0.0
2017-Dec-01 03:30N 26°06' W 080°10'0 0.0
2017-Dec-01 03:00N 26°06' W 080°10'0 0.0
2017-Dec-01 02:30N 26°06' W 080°10'0 0.0
2017-Dec-01 02:00N 26°06' W 080°10'0 0.0
2017-Dec-01 01:30N 26°06' W 080°10'0 0.0
2017-Dec-01 01:00N 26°06' W 080°10'0 0.0
2017-Dec-01 00:30N 26°06' W 080°10'0 0.0
2017-Dec-01 00:00N 26°06' W 080°10'0 0.0
2017-Nov-30 23:30N 26°06' W 080°10'0 0.0
2017-Nov-30 23:00N 26°06' W 080°10'0 0.0
2017-Nov-30 22:30N 26°06' W 080°10'0 0.0
2017-Nov-30 22:00N 26°06' W 080°10'0 0.0
2017-Nov-30 21:30N 26°06' W 080°10'0 0.0
2017-Nov-30 21:00N 26°06' W 080°10'0 0.0
2017-Nov-30 20:30N 26°06' W 080°10'0 0.0
2017-Nov-30 20:00N 26°06' W 080°10'0 0.0
2017-Nov-30 19:30N 26°06' W 080°10'0 0.0
2017-Nov-30 19:00N 26°06' W 080°10'0 0.0
2017-Nov-30 18:30N 26°06' W 080°10'0 0.0
2017-Nov-30 18:00N 26°06' W 080°10'0 0.0
2017-Nov-30 17:30N 26°06' W 080°10'0 0.0
2017-Nov-30 17:00N 26°06' W 080°10'0 0.0
2017-Nov-30 16:30N 26°06' W 080°10'0 0.0
2017-Nov-30 16:00N 26°06' W 080°10'0 0.0
2017-Nov-30 15:30N 26°06' W 080°10'0 0.0
2017-Nov-30 15:00N 26°06' W 080°10'0 0.0
2017-Nov-30 14:30N 26°06' W 080°10'0 0.0
2017-Nov-30 14:00N 26°06' W 080°10'0 0.0
2017-Nov-30 13:30N 26°06' W 080°10'0 0.0
2017-Nov-30 13:00N 26°06' W 080°10'0 0.0
2017-Nov-30 12:30N 26°06' W 080°10'0 0.0
2017-Nov-30 12:00N 26°06' W 080°10'0 0.0
2017-Nov-30 11:30N 26°06' W 080°10'0 0.0
2017-Nov-30 11:00N 26°06' W 080°10'0 0.0
2017-Nov-30 10:30N 26°06' W 080°10'0 0.0
2017-Nov-30 10:00N 26°06' W 080°10'0 0.0
2017-Nov-30 09:30N 26°06' W 080°10'0 0.0
2017-Nov-30 09:00N 26°06' W 080°10'0 0.0
2017-Nov-30 08:30N 26°06' W 080°10'0 0.0
2017-Nov-30 08:00N 26°06' W 080°10'0 0.0
2017-Nov-30 07:30N 26°06' W 080°10'0 0.0
2017-Nov-30 07:00N 26°06' W 080°10'0 0.0
2017-Nov-30 06:30N 26°06' W 080°10'0 0.0
2017-Nov-30 06:00N 26°06' W 080°10'0 0.0
2017-Nov-30 05:30N 26°06' W 080°10'0 0.0
2017-Nov-30 05:00N 26°06' W 080°10'0 0.0
2017-Nov-30 04:30N 26°06' W 080°10'0 0.0
2017-Nov-30 04:00N 26°06' W 080°10'0 0.0
2017-Nov-30 03:30N 26°06' W 080°10'0 0.0
2017-Nov-30 03:00N 26°06' W 080°10'0 0.0
2017-Nov-30 02:30N 26°06' W 080°10'0 0.0
2017-Nov-30 02:00N 26°06' W 080°10'0 0.0
2017-Nov-30 01:30N 26°06' W 080°10'0 0.0
2017-Nov-30 01:00N 26°06' W 080°10'0 0.0
2017-Nov-30 00:30N 26°06' W 080°10'0 0.0
2017-Nov-30 00:00N 26°06' W 080°10'0 0.0
2017-Nov-29 23:30N 26°06' W 080°10'0 0.0
2017-Nov-29 23:00N 26°06' W 080°10'0 0.0
2017-Nov-29 22:30N 26°06' W 080°10'0 0.0
2017-Nov-29 22:00N 26°06' W 080°10'0 0.0
2017-Nov-29 21:30N 26°06' W 080°10'0 0.0
2017-Nov-29 21:00N 26°06' W 080°10'0 0.0
2017-Nov-29 20:30N 26°06' W 080°10'0 0.0
2017-Nov-29 20:00N 26°06' W 080°10'0 0.0
2017-Nov-29 19:30N 26°06' W 080°10'0 0.0
2017-Nov-29 19:00N 26°06' W 080°10'0 0.0
2017-Nov-29 18:30N 26°06' W 080°10'0 0.0
2017-Nov-29 18:00N 26°06' W 080°10'0 0.0
2017-Nov-29 17:30N 26°06' W 080°10'0 0.0
2017-Nov-29 17:00N 26°06' W 080°10'0 0.0
2017-Nov-29 16:30N 26°06' W 080°10'0 0.0
2017-Nov-29 16:00N 26°06' W 080°10'0 0.0
2017-Nov-29 15:30N 26°06' W 080°10'0 0.0
2017-Nov-29 15:00N 26°06' W 080°10'0 0.0
2017-Nov-29 14:30N 26°06' W 080°10'0 0.0
2017-Nov-29 14:00N 26°06' W 080°10'0 0.0
2017-Nov-29 13:30N 26°06' W 080°10'0 0.0
2017-Nov-29 13:00N 26°06' W 080°10'0 0.0
2017-Nov-29 12:30N 26°06' W 080°10'0 0.0
2017-Nov-29 12:00N 26°06' W 080°10'0 0.0
2017-Nov-29 11:30N 26°06' W 080°10'0 0.0
2017-Nov-29 11:00N 26°06' W 080°10'0 0.0
2017-Nov-29 10:30N 26°06' W 080°10'0 0.0
2017-Nov-29 10:00N 26°06' W 080°10'0 0.0
2017-Nov-29 09:30N 26°06' W 080°10'0 0.0
2017-Nov-29 09:00N 26°06' W 080°10'0 0.0
2017-Nov-29 08:30N 26°06' W 080°10'0 0.0
2017-Nov-29 08:00N 26°06' W 080°10'0 0.0
2017-Nov-29 07:30N 26°06' W 080°10'0 0.0
2017-Nov-29 07:00N 26°06' W 080°10'0 0.0
2017-Nov-29 06:30N 26°06' W 080°10'0 0.0
2017-Nov-29 06:00N 26°06' W 080°10'0 0.0
2017-Nov-29 05:30N 26°06' W 080°10'0 0.0
2017-Nov-29 05:00N 26°06' W 080°10'0 0.0
2017-Nov-29 04:30N 26°06' W 080°10'0 0.0
2017-Nov-29 04:00N 26°06' W 080°10'0 0.0
2017-Nov-29 03:30N 26°06' W 080°10'0 0.0
2017-Nov-29 03:00N 26°06' W 080°10'0 0.0
2017-Nov-29 02:30N 26°06' W 080°10'0 0.0
2017-Nov-29 02:00N 26°06' W 080°10'0 0.0
2017-Nov-29 01:30N 26°06' W 080°10'0 0.0
2017-Nov-29 01:00N 26°06' W 080°10'0 0.0
2017-Nov-29 00:30N 26°06' W 080°10'0 0.0
2017-Nov-29 00:00N 26°06' W 080°10'0 0.0
2017-Nov-28 23:30N 26°06' W 080°10'0 0.0
2017-Nov-28 23:00N 26°06' W 080°10'0 0.0
2017-Nov-28 22:30N 26°06' W 080°10'0 0.0
2017-Nov-28 22:00N 26°06' W 080°10'0 0.0
2017-Nov-28 21:30N 26°06' W 080°10'0 0.0
2017-Nov-28 21:00N 26°06' W 080°10'0 0.0
2017-Nov-28 20:30N 26°06' W 080°10'0 0.0
2017-Nov-28 20:00N 26°06' W 080°10'0 0.0
2017-Nov-28 19:30N 26°06' W 080°10'0 0.0
2017-Nov-28 19:00N 26°06' W 080°10'0 0.0
2017-Nov-28 18:30N 26°06' W 080°10'0 0.0
2017-Nov-28 18:00N 26°06' W 080°10'0 0.0
2017-Nov-28 17:30N 26°06' W 080°10'0 0.0
2017-Nov-28 17:00N 26°06' W 080°10'0 0.0
2017-Nov-28 16:30N 26°06' W 080°10'0 0.0
2017-Nov-28 16:00N 26°06' W 080°10'0 0.0
2017-Nov-28 15:00N 26°06' W 080°10'0 0.0
2017-Nov-28 14:30N 26°06' W 080°10'0 0.0
2017-Nov-28 14:00N 26°06' W 080°10'0 0.0
2017-Nov-28 13:30N 26°06' W 080°10'0 0.0
2017-Nov-28 13:00N 26°06' W 080°10'0 0.0
2017-Nov-28 12:30N 26°06' W 080°10'0 0.0
2017-Nov-28 12:00N 26°06' W 080°10'0 0.0
2017-Nov-28 11:30N 26°06' W 080°10'0 0.0
2017-Nov-28 11:00N 26°06' W 080°10'0 0.0
2017-Nov-28 10:30N 26°06' W 080°10'0 0.0
2017-Nov-28 10:00N 26°06' W 080°10'0 0.0
2017-Nov-28 09:30N 26°06' W 080°10'0 0.0
2017-Nov-28 09:00N 26°06' W 080°10'0 0.0
2017-Nov-28 08:30N 26°06' W 080°10'0 0.0
2017-Nov-28 08:00N 26°06' W 080°10'0 0.0
2017-Nov-28 07:30N 26°06' W 080°10'0 0.0
2017-Nov-28 07:00N 26°06' W 080°10'0 0.0
2017-Nov-28 06:30N 26°06' W 080°10'0 0.0
2017-Nov-28 06:00N 26°06' W 080°10'0 0.0
2017-Nov-28 05:30N 26°06' W 080°10'0 0.0
2017-Nov-28 04:30N 26°06' W 080°10'0 0.0
2017-Nov-28 04:00N 26°06' W 080°10'0 0.0
2017-Nov-28 03:30N 26°06' W 080°10'0 0.0
2017-Nov-28 03:00N 26°06' W 080°10'0 0.0
2017-Nov-28 02:30N 26°06' W 080°10'0 0.0
2017-Nov-28 02:00N 26°06' W 080°10'0 0.0
2017-Nov-28 01:30N 26°06' W 080°10'0 0.0
2017-Nov-28 01:00N 26°06' W 080°10'0 0.0
2017-Nov-28 00:30N 26°06' W 080°10'0 0.0
2017-Nov-28 00:00N 26°06' W 080°10'0 0.0
2017-Nov-27 23:30N 26°06' W 080°10'0 0.0
2017-Nov-27 23:00N 26°06' W 080°10'0 0.0
2017-Nov-27 22:30N 26°06' W 080°10'0 0.0
2017-Nov-27 22:00N 26°06' W 080°10'0 0.0
2017-Nov-27 21:30N 26°06' W 080°10'0 0.0
2017-Nov-27 21:00N 26°06' W 080°10'0 0.0
2017-Nov-27 20:30N 26°06' W 080°10'0 0.0
2017-Nov-27 20:00N 26°06' W 080°10'0 0.0
2017-Nov-27 19:30N 26°06' W 080°10'0 0.0
2017-Nov-27 19:00N 26°06' W 080°10'0 0.0
2017-Nov-27 18:30N 26°06' W 080°10'0 0.0
2017-Nov-27 18:00N 26°06' W 080°10'0 0.0
2017-Nov-27 17:30N 26°06' W 080°10'0 0.0
2017-Nov-27 17:00N 26°06' W 080°10'0 0.0
2017-Nov-27 16:30N 26°06' W 080°10'0 0.0
2017-Nov-27 16:00N 26°06' W 080°10'0 0.0
2017-Nov-27 15:30N 26°06' W 080°10'0 0.0
2017-Nov-27 15:00N 26°06' W 080°10'0 0.0
2017-Nov-27 14:30N 26°06' W 080°10'0 0.0
2017-Nov-27 14:00N 26°06' W 080°10'0 0.0
2017-Nov-27 13:30N 26°06' W 080°10'0 0.0
2017-Nov-27 13:00N 26°06' W 080°10'0 0.0
2017-Nov-27 12:30N 26°06' W 080°10'0 0.0
2017-Nov-27 12:00N 26°06' W 080°10'0 0.0
2017-Nov-27 11:30N 26°06' W 080°10'0 0.0
2017-Nov-27 11:00N 26°06' W 080°10'0 0.0
2017-Nov-27 10:30N 26°06' W 080°10'0 0.0
2017-Nov-27 10:00N 26°06' W 080°10'0 0.0
2017-Nov-27 09:30N 26°06' W 080°10'0 0.0
2017-Nov-27 09:00N 26°06' W 080°10'0 0.0
2017-Nov-27 08:30N 26°06' W 080°10'0 0.0
2017-Nov-27 08:00N 26°06' W 080°10'0 0.0
2017-Nov-27 07:30N 26°06' W 080°10'0 0.0
2017-Nov-27 07:00N 26°06' W 080°10'0 0.0
2017-Nov-27 06:30N 26°06' W 080°10'0 0.0
2017-Nov-27 06:00N 26°06' W 080°10'0 0.0
2017-Nov-27 05:30N 26°06' W 080°10'0 0.0
2017-Nov-27 05:00N 26°06' W 080°10'0 0.0
2017-Nov-27 04:30N 26°06' W 080°10'0 0.0
2017-Nov-27 04:00N 26°06' W 080°10'0 0.0
2017-Nov-27 03:30N 26°06' W 080°10'0 0.0
2017-Nov-27 03:00N 26°06' W 080°10'0 0.0
2017-Nov-27 02:30N 26°06' W 080°10'0 0.0
2017-Nov-27 02:00N 26°06' W 080°10'0 0.0
2017-Nov-27 01:30N 26°06' W 080°10'0 0.0
2017-Nov-27 01:00N 26°06' W 080°10'0 0.0
2017-Nov-27 00:30N 26°06' W 080°10'0 0.0
2017-Nov-27 00:00N 26°06' W 080°10'0 0.0
2017-Nov-26 23:30N 26°06' W 080°10'0 0.0
2017-Nov-26 23:00N 26°06' W 080°10'0 0.0
2017-Nov-26 22:30N 26°06' W 080°10'0 0.0
2017-Nov-26 22:00N 26°06' W 080°10'0 0.0
2017-Nov-26 21:30N 26°06' W 080°10'0 0.0
2017-Nov-26 21:00N 26°06' W 080°10'0 0.0
2017-Nov-26 20:30N 26°06' W 080°10'0 0.0
2017-Nov-26 20:00N 26°06' W 080°10'0 0.0
2017-Nov-26 19:30N 26°06' W 080°10'0 0.0
2017-Nov-26 19:00N 26°06' W 080°10'0 0.0
2017-Nov-26 18:30N 26°06' W 080°10'0 0.0
2017-Nov-26 18:00N 26°06' W 080°10'0 0.0
2017-Nov-26 17:30N 26°06' W 080°10'0 0.0
2017-Nov-26 17:00N 26°06' W 080°10'0 0.0
2017-Nov-26 16:30N 26°06' W 080°10'0 0.0
2017-Nov-26 16:00N 26°06' W 080°10'0 0.0
2017-Nov-26 15:30N 26°06' W 080°10'0 0.0
2017-Nov-26 15:00N 26°06' W 080°10'0 0.0
2017-Nov-26 14:30N 26°06' W 080°10'0 0.0
2017-Nov-26 14:00N 26°06' W 080°10'0 0.0
2017-Nov-26 13:30N 26°06' W 080°10'0 0.0
2017-Nov-26 13:00N 26°06' W 080°10'0 0.0
2017-Nov-26 12:30N 26°06' W 080°10'0 0.0
2017-Nov-26 12:00N 26°06' W 080°10'0 0.0
2017-Nov-26 11:30N 26°06' W 080°10'0 0.0
2017-Nov-26 11:00N 26°06' W 080°10'0 0.0
2017-Nov-26 10:30N 26°06' W 080°10'0 0.0
2017-Nov-26 10:00N 26°06' W 080°10'0 0.0
2017-Nov-26 09:30N 26°06' W 080°10'0 0.0
2017-Nov-26 09:00N 26°06' W 080°10'0 0.0
2017-Nov-26 08:30N 26°06' W 080°10'0 0.0
2017-Nov-26 08:00N 26°06' W 080°10'0 0.0
2017-Nov-26 07:30N 26°06' W 080°10'0 0.0
2017-Nov-26 07:00N 26°06' W 080°10'0 0.0
2017-Nov-26 06:30N 26°06' W 080°10'0 0.0
2017-Nov-26 06:00N 26°06' W 080°10'0 0.0
2017-Nov-26 05:30N 26°06' W 080°10'0 0.0
2017-Nov-26 05:00N 26°06' W 080°10'0 0.0
2017-Nov-26 04:30N 26°06' W 080°10'0 0.0
2017-Nov-26 04:00N 26°06' W 080°10'0 0.0
2017-Nov-26 03:30N 26°06' W 080°10'0 0.0
2017-Nov-26 03:00N 26°06' W 080°10'0 0.0
2017-Nov-26 02:30N 26°06' W 080°10'0 0.0
2017-Nov-26 02:00N 26°06' W 080°10'0 0.0
2017-Nov-26 01:30N 26°06' W 080°10'0 0.0
2017-Nov-26 01:00N 26°06' W 080°10'0 0.0
2017-Nov-26 00:30N 26°06' W 080°10'0 0.0
2017-Nov-26 00:00N 26°06' W 080°10'0 0.0
2017-Nov-25 23:30N 26°06' W 080°10'0 0.0
2017-Nov-25 23:00N 26°06' W 080°10'0 0.0
2017-Nov-25 22:30N 26°06' W 080°10'0 0.0
2017-Nov-25 22:00N 26°06' W 080°10'0 0.0
2017-Nov-25 21:30N 26°06' W 080°10'0 0.0
2017-Nov-25 21:00N 26°06' W 080°10'0 0.0
2017-Nov-25 20:30N 26°06' W 080°10'0 0.0
2017-Nov-25 20:00N 26°06' W 080°10'0 0.0
2017-Nov-25 19:30N 26°06' W 080°10'0 0.0
2017-Nov-25 19:00N 26°06' W 080°10'0 0.0
2017-Nov-25 18:30N 26°06' W 080°10'0 0.0
2017-Nov-25 18:00N 26°06' W 080°10'0 0.0
2017-Nov-25 17:30N 26°06' W 080°10'0 0.0
2017-Nov-25 17:00N 26°06' W 080°10'0 0.0
2017-Nov-25 16:30N 26°06' W 080°10'0 0.0
2017-Nov-25 16:00N 26°06' W 080°10'0 0.0
2017-Nov-25 15:30N 26°06' W 080°10'0 0.0
2017-Nov-25 15:00N 26°06' W 080°10'0 0.0
2017-Nov-25 14:30N 26°06' W 080°10'0 0.0
2017-Nov-25 14:00N 26°06' W 080°10'0 0.0
2017-Nov-25 13:30N 26°06' W 080°10'0 0.0
2017-Nov-25 13:00N 26°06' W 080°10'0 0.0
2017-Nov-25 12:30N 26°06' W 080°10'0 0.0
2017-Nov-25 12:00N 26°06' W 080°10'0 0.0
2017-Nov-25 11:30N 26°06' W 080°10'0 0.0
2017-Nov-25 11:00N 26°06' W 080°10'0 0.0
2017-Nov-25 10:30N 26°06' W 080°10'0 0.0
2017-Nov-25 10:00N 26°06' W 080°10'0 0.0
2017-Nov-25 09:30N 26°06' W 080°10'0 0.0
2017-Nov-25 09:00N 26°06' W 080°10'0 0.0
2017-Nov-25 08:30N 26°06' W 080°10'0 0.0
2017-Nov-25 08:00N 26°06' W 080°10'0 0.0
2017-Nov-25 07:30N 26°06' W 080°10'0 0.0
2017-Nov-25 07:00N 26°06' W 080°10'0 0.0
2017-Nov-25 06:30N 26°06' W 080°10'0 0.0
2017-Nov-25 06:00N 26°06' W 080°10'0 0.0
2017-Nov-25 05:30N 26°06' W 080°10'0 0.0
2017-Nov-25 05:00N 26°06' W 080°10'0 0.0
2017-Nov-25 04:30N 26°06' W 080°10'0 0.0
2017-Nov-25 04:00N 26°06' W 080°10'0 0.0
2017-Nov-25 03:30N 26°06' W 080°10'0 0.0
2017-Nov-25 03:00N 26°06' W 080°10'0 0.0
2017-Nov-25 02:30N 26°06' W 080°10'0 0.0
2017-Nov-25 02:00N 26°06' W 080°10'0 0.0
2017-Nov-25 01:30N 26°06' W 080°10'0 0.0
2017-Nov-25 01:00N 26°06' W 080°10'0 0.0
2017-Nov-25 00:30N 26°06' W 080°10'0 0.0
2017-Nov-25 00:00N 26°06' W 080°10'0 0.0
2017-Nov-24 23:30N 26°06' W 080°10'0 0.0
2017-Nov-24 23:00N 26°06' W 080°10'0 0.0
2017-Nov-24 22:30N 26°06' W 080°10'0 0.0
2017-Nov-24 22:00N 26°06' W 080°10'0 0.0
2017-Nov-24 21:30N 26°06' W 080°10'0 0.0
2017-Nov-24 21:00N 26°06' W 080°10'0 0.0
2017-Nov-24 20:30N 26°06' W 080°10'0 0.0
2017-Nov-24 20:00N 26°06' W 080°10'0 0.0
2017-Nov-24 19:30N 26°06' W 080°10'0 0.0
2017-Nov-24 19:00N 26°06' W 080°10'0 0.0
2017-Nov-24 18:30N 26°06' W 080°10'0 0.0
2017-Nov-24 18:00N 26°06' W 080°10'0 0.0
2017-Nov-24 17:30N 26°06' W 080°10'0 0.0
2017-Nov-24 17:00N 26°06' W 080°10'0 0.0
2017-Nov-24 16:30N 26°06' W 080°10'0 0.0
2017-Nov-24 16:00N 26°06' W 080°10'0 0.0
2017-Nov-24 15:30N 26°06' W 080°10'0 0.0
2017-Nov-24 15:00N 26°06' W 080°10'0 0.0
2017-Nov-24 14:30N 26°06' W 080°10'0 0.0
2017-Nov-24 14:00N 26°06' W 080°10'0 0.0
2017-Nov-24 13:30N 26°06' W 080°10'0 0.0
2017-Nov-24 13:00N 26°06' W 080°10'0 0.0
2017-Nov-24 12:30N 26°06' W 080°10'0 0.0
2017-Nov-24 12:00N 26°06' W 080°10'0 0.0
2017-Nov-24 11:30N 26°06' W 080°10'0 0.0
2017-Nov-24 11:00N 26°06' W 080°10'0 0.0
2017-Nov-24 10:30N 26°06' W 080°10'0 0.0
2017-Nov-24 10:00N 26°06' W 080°10'0 0.0
2017-Nov-24 09:30N 26°06' W 080°10'0 0.0
2017-Nov-24 09:00N 26°06' W 080°10'0 0.0
2017-Nov-24 08:30N 26°06' W 080°10'0 0.0
2017-Nov-24 08:00N 26°06' W 080°10'0 0.0
2017-Nov-24 07:30N 26°06' W 080°10'0 0.0
2017-Nov-24 07:00N 26°06' W 080°10'0 0.0
2017-Nov-24 06:30N 26°06' W 080°10'0 0.0
2017-Nov-24 06:00N 26°06' W 080°10'0 0.0
2017-Nov-24 05:30N 26°06' W 080°10'0 0.0
2017-Nov-24 05:00N 26°06' W 080°10'0 0.0
2017-Nov-24 04:30N 26°06' W 080°10'0 0.0
2017-Nov-24 04:00N 26°06' W 080°10'0 0.0
2017-Nov-24 03:30N 26°06' W 080°10'0 0.0
2017-Nov-24 03:00N 26°06' W 080°10'0 0.0
2017-Nov-24 02:30N 26°06' W 080°10'0 0.0
2017-Nov-24 02:00N 26°06' W 080°10'0 0.0
2017-Nov-24 01:30N 26°06' W 080°10'0 0.0
2017-Nov-24 01:00N 26°06' W 080°10'0 0.0
2017-Nov-24 00:30N 26°06' W 080°10'0 0.0
2017-Nov-24 00:00N 26°06' W 080°10'0 0.0
2017-Nov-23 23:30N 26°06' W 080°10'0 0.0
2017-Nov-23 23:00N 26°06' W 080°10'0 0.0
2017-Nov-23 22:30N 26°06' W 080°10'0 0.0
2017-Nov-23 22:00N 26°06' W 080°10'0 0.0
2017-Nov-23 21:30N 26°06' W 080°10'0 0.0
2017-Nov-23 21:00N 26°06' W 080°10'0 0.0
2017-Nov-23 20:30N 26°06' W 080°10'0 0.0
2017-Nov-23 20:00N 26°06' W 080°10'0 0.0
2017-Nov-23 19:30N 26°06' W 080°10'0 0.0
2017-Nov-23 19:00N 26°06' W 080°10'0 0.0
2017-Nov-23 18:30N 26°06' W 080°10'0 0.0
2017-Nov-23 18:00N 26°06' W 080°10'0 0.0
2017-Nov-23 17:30N 26°06' W 080°10'0 0.0
2017-Nov-23 17:00N 26°06' W 080°10'0 0.0
2017-Nov-23 16:30N 26°06' W 080°10'0 0.0
2017-Nov-23 16:00N 26°06' W 080°10'0 0.0
2017-Nov-23 15:30N 26°06' W 080°10'0 0.0
2017-Nov-23 15:00N 26°06' W 080°10'0 0.0
2017-Nov-23 14:30N 26°06' W 080°10'0 0.0
2017-Nov-23 14:00N 26°06' W 080°10'0 0.0
2017-Nov-23 13:30N 26°06' W 080°10'0 0.0
2017-Nov-23 13:00N 26°06' W 080°10'0 0.0
2017-Nov-23 12:30N 26°06' W 080°10'0 0.0
2017-Nov-23 12:00N 26°06' W 080°10'0 0.0
2017-Nov-23 11:30N 26°06' W 080°10'0 0.0
2017-Nov-23 11:00N 26°06' W 080°10'0 0.0
2017-Nov-23 10:30N 26°06' W 080°10'0 0.0
2017-Nov-23 10:00N 26°06' W 080°10'0 0.0
2017-Nov-23 09:30N 26°06' W 080°10'0 0.0
2017-Nov-23 09:00N 26°06' W 080°10'0 0.0
2017-Nov-23 08:30N 26°06' W 080°10'0 0.0
2017-Nov-23 08:00N 26°06' W 080°10'0 0.0
2017-Nov-23 07:30N 26°06' W 080°10'0 0.0
2017-Nov-23 07:00N 26°06' W 080°10'0 0.0
2017-Nov-23 06:30N 26°06' W 080°10'0 0.0
2017-Nov-23 06:00N 26°06' W 080°10'0 0.0
2017-Nov-23 05:30N 26°06' W 080°10'0 0.0
2017-Nov-23 05:00N 26°06' W 080°10'0 0.0
2017-Nov-23 04:30N 26°06' W 080°10'0 0.0
2017-Nov-23 04:00N 26°06' W 080°10'0 0.0
2017-Nov-23 03:30N 26°06' W 080°10'0 0.0
2017-Nov-23 03:00N 26°06' W 080°10'0 0.0
2017-Nov-23 02:30N 26°06' W 080°10'0 0.0
2017-Nov-23 02:00N 26°06' W 080°10'0 0.0
2017-Nov-23 01:30N 26°06' W 080°10'0 0.0
2017-Nov-23 01:00N 26°06' W 080°10'0 0.0
2017-Nov-23 00:30N 26°06' W 080°10'0 0.0
2017-Nov-23 00:00N 26°06' W 080°10'0 0.0
2017-Nov-22 23:30N 26°06' W 080°10'0 0.0
2017-Nov-22 23:00N 26°06' W 080°10'0 0.0
2017-Nov-22 22:30N 26°06' W 080°10'0 0.0
2017-Nov-22 22:00N 26°06' W 080°10'0 0.0
2017-Nov-22 21:30N 26°06' W 080°10'0 0.0
2017-Nov-22 21:00N 26°06' W 080°10'0 0.0
2017-Nov-22 20:30N 26°06' W 080°10'0 0.0
2017-Nov-22 20:00N 26°06' W 080°10'0 0.0
2017-Nov-22 19:30N 26°06' W 080°10'  

Dump ship's entire track history